sensor_id;sensor_type;location;lat;lon;timestamp;P1;durP1;ratioP1;P2;durP2;ratioP2
6519;SDS011;3293;51.690;5.982;2023-05-14T00:03:29;11.97;;;9.33;;
6519;SDS011;3293;51.690;5.982;2023-05-14T00:08:29;10.37;;;9.37;;
6519;SDS011;3293;51.690;5.982;2023-05-14T00:13:29;13.07;;;10.40;;
6519;SDS011;3293;51.690;5.982;2023-05-14T00:18:29;11.37;;;10.13;;
6519;SDS011;3293;51.690;5.982;2023-05-14T00:23:29;12.73;;;10.20;;
6519;SDS011;3293;51.690;5.982;2023-05-14T00:28:29;12.03;;;10.43;;
6519;SDS011;3293;51.690;5.982;2023-05-14T00:33:29;13.83;;;10.53;;
6519;SDS011;3293;51.690;5.982;2023-05-14T00:38:29;12.93;;;11.40;;
6519;SDS011;3293;51.690;5.982;2023-05-14T00:43:29;13.17;;;10.97;;
6519;SDS011;3293;51.690;5.982;2023-05-14T00:48:31;14.00;;;12.10;;
6519;SDS011;3293;51.690;5.982;2023-05-14T00:53:32;12.60;;;11.30;;
6519;SDS011;3293;51.690;5.982;2023-05-14T00:58:32;14.93;;;12.63;;
6519;SDS011;3293;51.690;5.982;2023-05-14T01:03:32;14.67;;;12.50;;
6519;SDS011;3293;51.690;5.982;2023-05-14T01:24:38;17.47;;;15.53;;
6519;SDS011;3293;51.690;5.982;2023-05-14T01:29:39;18.63;;;16.13;;
6519;SDS011;3293;51.690;5.982;2023-05-14T01:34:47;17.70;;;15.83;;
6519;SDS011;3293;51.690;5.982;2023-05-14T01:39:49;17.53;;;15.70;;
6519;SDS011;3293;51.690;5.982;2023-05-14T01:44:50;18.53;;;16.53;;
6519;SDS011;3293;51.690;5.982;2023-05-14T01:49:50;19.43;;;16.60;;
6519;SDS011;3293;51.690;5.982;2023-05-14T01:54:50;20.53;;;17.30;;
6519;SDS011;3293;51.690;5.982;2023-05-14T01:59:50;19.23;;;17.20;;
6519;SDS011;3293;51.690;5.982;2023-05-14T02:04:50;20.67;;;17.73;;
6519;SDS011;3293;51.690;5.982;2023-05-14T02:09:50;27.27;;;17.70;;
6519;SDS011;3293;51.690;5.982;2023-05-14T02:14:50;20.23;;;16.83;;
6519;SDS011;3293;51.690;5.982;2023-05-14T02:19:50;21.90;;;17.23;;
6519;SDS011;3293;51.690;5.982;2023-05-14T02:24:50;19.57;;;17.47;;
6519;SDS011;3293;51.690;5.982;2023-05-14T02:29:50;18.80;;;16.73;;
6519;SDS011;3293;51.690;5.982;2023-05-14T02:34:51;22.53;;;19.27;;
6519;SDS011;3293;51.690;5.982;2023-05-14T02:39:51;21.73;;;18.17;;
6519;SDS011;3293;51.690;5.982;2023-05-14T02:44:51;21.17;;;18.13;;
6519;SDS011;3293;51.690;5.982;2023-05-14T02:49:51;22.37;;;18.80;;
6519;SDS011;3293;51.690;5.982;2023-05-14T02:54:51;21.20;;;18.33;;
6519;SDS011;3293;51.690;5.982;2023-05-14T02:59:51;20.07;;;17.93;;
6519;SDS011;3293;51.690;5.982;2023-05-14T03:04:51;21.73;;;18.10;;
6519;SDS011;3293;51.690;5.982;2023-05-14T03:09:51;21.07;;;18.97;;
6519;SDS011;3293;51.690;5.982;2023-05-14T03:14:51;21.93;;;18.67;;
6519;SDS011;3293;51.690;5.982;2023-05-14T03:19:50;22.03;;;18.83;;
6519;SDS011;3293;51.690;5.982;2023-05-14T03:24:50;24.27;;;21.77;;
6519;SDS011;3293;51.690;5.982;2023-05-14T03:29:50;23.17;;;20.50;;
6519;SDS011;3293;51.690;5.982;2023-05-14T03:34:50;22.37;;;20.07;;
6519;SDS011;3293;51.690;5.982;2023-05-14T03:39:50;23.57;;;21.07;;
6519;SDS011;3293;51.690;5.982;2023-05-14T03:44:50;24.87;;;22.30;;
6519;SDS011;3293;51.690;5.982;2023-05-14T03:49:50;25.30;;;20.53;;
6519;SDS011;3293;51.690;5.982;2023-05-14T03:54:50;24.40;;;20.80;;
6519;SDS011;3293;51.690;5.982;2023-05-14T03:59:50;29.07;;;21.23;;
6519;SDS011;3293;51.690;5.982;2023-05-14T04:04:50;29.73;;;22.27;;
6519;SDS011;3293;51.690;5.982;2023-05-14T04:09:50;25.53;;;22.67;;
6519;SDS011;3293;51.690;5.982;2023-05-14T04:14:50;29.03;;;23.13;;
6519;SDS011;3293;51.690;5.982;2023-05-14T04:19:50;27.23;;;22.20;;
6519;SDS011;3293;51.690;5.982;2023-05-14T04:24:51;26.57;;;21.60;;
6519;SDS011;3293;51.690;5.982;2023-05-14T04:29:52;24.10;;;21.60;;
6519;SDS011;3293;51.690;5.982;2023-05-14T04:34:53;24.00;;;20.90;;
6519;SDS011;3293;51.690;5.982;2023-05-14T04:39:54;24.03;;;21.53;;
6519;SDS011;3293;51.690;5.982;2023-05-14T04:44:54;20.10;;;17.90;;
6519;SDS011;3293;51.690;5.982;2023-05-14T04:49:54;20.77;;;18.00;;
6519;SDS011;3293;51.690;5.982;2023-05-14T04:54:56;18.07;;;16.27;;
6519;SDS011;3293;51.690;5.982;2023-05-14T04:59:56;17.57;;;15.70;;
6519;SDS011;3293;51.690;5.982;2023-05-14T05:04:56;16.58;;;13.85;;
6519;SDS011;3293;51.690;5.982;2023-05-14T05:09:56;15.65;;;12.93;;
6519;SDS011;3293;51.690;5.982;2023-05-14T05:14:56;15.63;;;12.25;;
6519;SDS011;3293;51.690;5.982;2023-05-14T05:19:56;17.02;;;13.93;;
6519;SDS011;3293;51.690;5.982;2023-05-14T05:24:56;21.25;;;14.48;;
6519;SDS011;3293;51.690;5.982;2023-05-14T05:29:59;13.15;;;11.80;;
6519;SDS011;3293;51.690;5.982;2023-05-14T05:35:02;17.20;;;13.95;;
6519;SDS011;3293;51.690;5.982;2023-05-14T05:40:02;14.90;;;13.18;;
6519;SDS011;3293;51.690;5.982;2023-05-14T05:45:04;14.02;;;12.40;;
6519;SDS011;3293;51.690;5.982;2023-05-14T05:50:05;13.98;;;11.45;;
6519;SDS011;3293;51.690;5.982;2023-05-14T05:55:05;15.00;;;11.48;;
6519;SDS011;3293;51.690;5.982;2023-05-14T06:00:06;14.43;;;12.27;;
6519;SDS011;3293;51.690;5.982;2023-05-14T06:05:12;13.98;;;11.15;;
6519;SDS011;3293;51.690;5.982;2023-05-14T06:10:12;17.00;;;11.25;;
6519;SDS011;3293;51.690;5.982;2023-05-14T06:15:13;13.13;;;11.23;;
6519;SDS011;3293;51.690;5.982;2023-05-14T06:20:13;14.20;;;11.40;;
6519;SDS011;3293;51.690;5.982;2023-05-14T06:25:13;13.13;;;11.65;;
6519;SDS011;3293;51.690;5.982;2023-05-14T06:30:13;12.25;;;10.38;;
6519;SDS011;3293;51.690;5.982;2023-05-14T06:35:13;16.48;;;11.82;;
6519;SDS011;3293;51.690;5.982;2023-05-14T06:40:13;13.50;;;11.95;;
6519;SDS011;3293;51.690;5.982;2023-05-14T06:45:14;12.02;;;10.93;;
6519;SDS011;3293;51.690;5.982;2023-05-14T06:50:14;11.57;;;10.45;;
6519;SDS011;3293;51.690;5.982;2023-05-14T06:55:14;10.90;;;9.73;;
6519;SDS011;3293;51.690;5.982;2023-05-14T07:00:14;12.60;;;9.85;;
6519;SDS011;3293;51.690;5.982;2023-05-14T07:05:14;11.27;;;10.10;;
6519;SDS011;3293;51.690;5.982;2023-05-14T07:10:14;11.45;;;10.25;;
6519;SDS011;3293;51.690;5.982;2023-05-14T07:15:14;10.95;;;9.80;;
6519;SDS011;3293;51.690;5.982;2023-05-14T07:20:14;11.48;;;9.98;;
6519;SDS011;3293;51.690;5.982;2023-05-14T07:25:14;12.10;;;10.10;;
6519;SDS011;3293;51.690;5.982;2023-05-14T07:30:14;11.75;;;10.52;;
6519;SDS011;3293;51.690;5.982;2023-05-14T07:35:14;13.20;;;10.27;;
6519;SDS011;3293;51.690;5.982;2023-05-14T07:40:14;11.68;;;10.48;;
6519;SDS011;3293;51.690;5.982;2023-05-14T07:45:14;14.55;;;9.88;;
6519;SDS011;3293;51.690;5.982;2023-05-14T07:50:14;14.05;;;11.05;;
6519;SDS011;3293;51.690;5.982;2023-05-14T07:55:15;15.00;;;10.82;;
6519;SDS011;3293;51.690;5.982;2023-05-14T08:00:15;13.27;;;11.02;;
6519;SDS011;3293;51.690;5.982;2023-05-14T08:05:15;13.05;;;11.15;;
6519;SDS011;3293;51.690;5.982;2023-05-14T08:10:15;12.45;;;11.18;;
6519;SDS011;3293;51.690;5.982;2023-05-14T08:15:15;11.35;;;10.27;;
6519;SDS011;3293;51.690;5.982;2023-05-14T08:20:16;11.32;;;10.13;;
6519;SDS011;3293;51.690;5.982;2023-05-14T08:25:15;14.02;;;10.95;;
6519;SDS011;3293;51.690;5.982;2023-05-14T08:30:15;11.20;;;10.10;;
6519;SDS011;3293;51.690;5.982;2023-05-14T08:35:16;11.43;;;9.45;;
6519;SDS011;3293;51.690;5.982;2023-05-14T08:40:17;11.25;;;8.85;;
6519;SDS011;3293;51.690;5.982;2023-05-14T08:45:18;10.65;;;9.57;;
6519;SDS011;3293;51.690;5.982;2023-05-14T08:50:19;10.38;;;8.73;;
6519;SDS011;3293;51.690;5.982;2023-05-14T08:55:20;9.40;;;8.45;;
6519;SDS011;3293;51.690;5.982;2023-05-14T09:00:21;10.57;;;8.63;;
6519;SDS011;3293;51.690;5.982;2023-05-14T09:05:21;12.80;;;9.57;;
6519;SDS011;3293;51.690;5.982;2023-05-14T09:10:22;10.85;;;8.43;;
6519;SDS011;3293;51.690;5.982;2023-05-14T09:15:23;9.13;;;8.05;;
6519;SDS011;3293;51.690;5.982;2023-05-14T09:20:26;8.40;;;7.20;;
6519;SDS011;3293;51.690;5.982;2023-05-14T09:25:26;9.75;;;7.82;;
6519;SDS011;3293;51.690;5.982;2023-05-14T09:30:30;11.45;;;8.20;;
6519;SDS011;3293;51.690;5.982;2023-05-14T09:35:32;8.20;;;7.38;;
6519;SDS011;3293;51.690;5.982;2023-05-14T09:40:32;9.68;;;7.88;;
6519;SDS011;3293;51.690;5.982;2023-05-14T09:45:33;11.70;;;7.78;;
6519;SDS011;3293;51.690;5.982;2023-05-14T09:50:40;9.65;;;8.10;;
6519;SDS011;3293;51.690;5.982;2023-05-14T09:55:41;9.30;;;8.18;;
6519;SDS011;3293;51.690;5.982;2023-05-14T10:00:44;9.32;;;8.18;;
6519;SDS011;3293;51.690;5.982;2023-05-14T10:05:46;12.40;;;8.52;;
6519;SDS011;3293;51.690;5.982;2023-05-14T10:10:48;9.38;;;8.40;;
6519;SDS011;3293;51.690;5.982;2023-05-14T10:15:51;10.98;;;8.38;;
6519;SDS011;3293;51.690;5.982;2023-05-14T10:21:04;10.05;;;9.02;;
6519;SDS011;3293;51.690;5.982;2023-05-14T10:26:06;12.20;;;8.25;;
6519;SDS011;3293;51.690;5.982;2023-05-14T10:31:10;11.45;;;8.80;;
6519;SDS011;3293;51.690;5.982;2023-05-14T10:36:11;12.75;;;9.45;;
6519;SDS011;3293;51.690;5.982;2023-05-14T10:41:12;9.85;;;8.68;;
6519;SDS011;3293;51.690;5.982;2023-05-14T10:46:16;11.32;;;8.30;;
6519;SDS011;3293;51.690;5.982;2023-05-14T10:51:16;11.85;;;8.57;;
6519;SDS011;3293;51.690;5.982;2023-05-14T10:56:19;10.25;;;6.57;;
6519;SDS011;3293;51.690;5.982;2023-05-14T11:01:19;10.15;;;7.68;;
6519;SDS011;3293;51.690;5.982;2023-05-14T11:06:22;8.63;;;7.32;;
6519;SDS011;3293;51.690;5.982;2023-05-14T11:11:24;10.07;;;7.10;;
6519;SDS011;3293;51.690;5.982;2023-05-14T11:16:26;6.38;;;5.55;;
6519;SDS011;3293;51.690;5.982;2023-05-14T11:21:29;10.15;;;6.80;;
6519;SDS011;3293;51.690;5.982;2023-05-14T11:26:31;7.03;;;6.00;;
6519;SDS011;3293;51.690;5.982;2023-05-14T11:31:31;8.55;;;4.53;;
6519;SDS011;3293;51.690;5.982;2023-05-14T11:36:31;4.05;;;3.65;;
6519;SDS011;3293;51.690;5.982;2023-05-14T11:41:31;3.90;;;3.42;;
6519;SDS011;3293;51.690;5.982;2023-05-14T11:46:31;7.10;;;3.58;;
6519;SDS011;3293;51.690;5.982;2023-05-14T11:51:31;3.92;;;3.45;;
6519;SDS011;3293;51.690;5.982;2023-05-14T11:56:31;5.07;;;3.38;;
6519;SDS011;3293;51.690;5.982;2023-05-14T12:01:35;5.43;;;3.03;;
6519;SDS011;3293;51.690;5.982;2023-05-14T12:06:35;4.63;;;3.30;;
6519;SDS011;3293;51.690;5.982;2023-05-14T12:11:37;5.40;;;3.55;;
6519;SDS011;3293;51.690;5.982;2023-05-14T12:16:38;9.32;;;3.80;;
6519;SDS011;3293;51.690;5.982;2023-05-14T12:21:39;5.93;;;3.13;;
6519;SDS011;3293;51.690;5.982;2023-05-14T12:26:44;3.83;;;2.65;;
6519;SDS011;3293;51.690;5.982;2023-05-14T12:31:47;3.00;;;2.67;;
6519;SDS011;3293;51.690;5.982;2023-05-14T12:36:48;2.78;;;2.33;;
6519;SDS011;3293;51.690;5.982;2023-05-14T12:41:48;3.13;;;2.65;;
6519;SDS011;3293;51.690;5.982;2023-05-14T12:46:48;6.10;;;2.95;;
6519;SDS011;3293;51.690;5.982;2023-05-14T12:51:48;5.65;;;2.80;;
6519;SDS011;3293;51.690;5.982;2023-05-14T12:56:48;2.95;;;2.38;;
6519;SDS011;3293;51.690;5.982;2023-05-14T13:01:48;4.30;;;2.78;;
6519;SDS011;3293;51.690;5.982;2023-05-14T13:06:48;4.88;;;2.78;;
6519;SDS011;3293;51.690;5.982;2023-05-14T13:11:48;3.72;;;2.83;;
6519;SDS011;3293;51.690;5.982;2023-05-14T13:16:48;6.00;;;3.00;;
6519;SDS011;3293;51.690;5.982;2023-05-14T13:21:49;5.03;;;2.92;;
6519;SDS011;3293;51.690;5.982;2023-05-14T13:26:49;4.03;;;3.05;;
6519;SDS011;3293;51.690;5.982;2023-05-14T13:31:49;5.10;;;2.97;;
6519;SDS011;3293;51.690;5.982;2023-05-14T13:36:48;3.65;;;2.97;;
6519;SDS011;3293;51.690;5.982;2023-05-14T13:41:49;5.88;;;3.10;;
6519;SDS011;3293;51.690;5.982;2023-05-14T13:46:49;4.70;;;3.70;;
6519;SDS011;3293;51.690;5.982;2023-05-14T13:51:49;4.38;;;2.97;;
6519;SDS011;3293;51.690;5.982;2023-05-14T13:56:49;3.25;;;2.95;;
6519;SDS011;3293;51.690;5.982;2023-05-14T14:01:50;4.05;;;2.90;;
6519;SDS011;3293;51.690;5.982;2023-05-14T14:06:50;4.95;;;2.97;;
6519;SDS011;3293;51.690;5.982;2023-05-14T14:11:50;3.30;;;3.00;;
6519;SDS011;3293;51.690;5.982;2023-05-14T14:16:50;3.72;;;3.08;;
6519;SDS011;3293;51.690;5.982;2023-05-14T14:21:50;3.45;;;3.15;;
6519;SDS011;3293;51.690;5.982;2023-05-14T14:26:50;3.45;;;3.15;;
6519;SDS011;3293;51.690;5.982;2023-05-14T14:31:50;6.32;;;3.17;;
6519;SDS011;3293;51.690;5.982;2023-05-14T14:36:50;7.03;;;3.47;;
6519;SDS011;3293;51.690;5.982;2023-05-14T14:41:50;8.02;;;3.85;;
6519;SDS011;3293;51.690;5.982;2023-05-14T14:46:50;5.13;;;3.60;;
6519;SDS011;3293;51.690;5.982;2023-05-14T14:51:50;4.95;;;4.00;;
6519;SDS011;3293;51.690;5.982;2023-05-14T14:56:50;4.13;;;3.72;;
6519;SDS011;3293;51.690;5.982;2023-05-14T15:01:51;11.10;;;4.10;;
6519;SDS011;3293;51.690;5.982;2023-05-14T15:06:51;42.50;;;11.63;;
6519;SDS011;3293;51.690;5.982;2023-05-14T15:11:51;6.28;;;3.90;;
6519;SDS011;3293;51.690;5.982;2023-05-14T15:16:51;5.55;;;3.90;;
6519;SDS011;3293;51.690;5.982;2023-05-14T15:21:51;6.85;;;3.70;;
6519;SDS011;3293;51.690;5.982;2023-05-14T15:26:51;3.78;;;3.47;;
6519;SDS011;3293;51.690;5.982;2023-05-14T15:31:51;5.32;;;4.07;;
6519;SDS011;3293;51.690;5.982;2023-05-14T15:36:51;4.78;;;4.20;;
6519;SDS011;3293;51.690;5.982;2023-05-14T15:41:51;6.75;;;4.15;;
6519;SDS011;3293;51.690;5.982;2023-05-14T15:46:51;4.20;;;3.63;;
6519;SDS011;3293;51.690;5.982;2023-05-14T15:51:51;5.00;;;3.67;;
6519;SDS011;3293;51.690;5.982;2023-05-14T15:56:51;4.43;;;3.90;;
6519;SDS011;3293;51.690;5.982;2023-05-14T16:01:51;3.95;;;3.55;;
6519;SDS011;3293;51.690;5.982;2023-05-14T16:06:51;7.60;;;3.60;;
6519;SDS011;3293;51.690;5.982;2023-05-14T16:11:52;5.15;;;4.07;;
6519;SDS011;3293;51.690;5.982;2023-05-14T16:16:52;5.18;;;4.10;;
6519;SDS011;3293;51.690;5.982;2023-05-14T16:21:53;7.43;;;4.30;;
6519;SDS011;3293;51.690;5.982;2023-05-14T16:26:53;5.43;;;4.35;;
6519;SDS011;3293;51.690;5.982;2023-05-14T16:31:53;9.57;;;4.32;;
6519;SDS011;3293;51.690;5.982;2023-05-14T16:36:52;8.90;;;3.92;;
6519;SDS011;3293;51.690;5.982;2023-05-14T16:41:52;4.70;;;4.25;;
6519;SDS011;3293;51.690;5.982;2023-05-14T16:46:52;4.43;;;3.90;;
6519;SDS011;3293;51.690;5.982;2023-05-14T16:51:52;4.95;;;3.67;;
6519;SDS011;3293;51.690;5.982;2023-05-14T16:56:52;6.13;;;4.25;;
6519;SDS011;3293;51.690;5.982;2023-05-14T17:01:52;10.60;;;4.70;;
6519;SDS011;3293;51.690;5.982;2023-05-14T17:06:52;7.88;;;4.15;;
6519;SDS011;3293;51.690;5.982;2023-05-14T17:11:53;8.93;;;4.63;;
6519;SDS011;3293;51.690;5.982;2023-05-14T17:16:53;9.13;;;4.50;;
6519;SDS011;3293;51.690;5.982;2023-05-14T17:21:53;6.53;;;4.20;;
6519;SDS011;3293;51.690;5.982;2023-05-14T17:26:53;6.53;;;4.60;;
6519;SDS011;3293;51.690;5.982;2023-05-14T17:31:53;9.90;;;5.43;;
6519;SDS011;3293;51.690;5.982;2023-05-14T17:36:54;7.93;;;4.60;;
6519;SDS011;3293;51.690;5.982;2023-05-14T17:41:54;7.00;;;5.20;;
6519;SDS011;3293;51.690;5.982;2023-05-14T17:46:54;10.32;;;5.38;;
6519;SDS011;3293;51.690;5.982;2023-05-14T17:51:54;9.20;;;4.35;;
6519;SDS011;3293;51.690;5.982;2023-05-14T17:56:54;7.32;;;4.13;;
6519;SDS011;3293;51.690;5.982;2023-05-14T18:01:55;7.85;;;5.07;;
6519;SDS011;3293;51.690;5.982;2023-05-14T18:06:54;7.50;;;4.53;;
6519;SDS011;3293;51.690;5.982;2023-05-14T18:11:54;7.00;;;4.85;;
6519;SDS011;3293;51.690;5.982;2023-05-14T18:16:55;9.23;;;5.05;;
6519;SDS011;3293;51.690;5.982;2023-05-14T18:21:55;10.45;;;4.70;;
6519;SDS011;3293;51.690;5.982;2023-05-14T18:26:55;11.52;;;4.43;;
6519;SDS011;3293;51.690;5.982;2023-05-14T18:31:55;6.78;;;4.15;;
6519;SDS011;3293;51.690;5.982;2023-05-14T18:36:55;5.30;;;3.80;;
6519;SDS011;3293;51.690;5.982;2023-05-14T18:41:57;5.50;;;3.97;;
6519;SDS011;3293;51.690;5.982;2023-05-14T18:46:58;7.70;;;5.25;;
6519;SDS011;3293;51.690;5.982;2023-05-14T18:51:59;11.55;;;6.05;;
6519;SDS011;3293;51.690;5.982;2023-05-14T18:57:01;12.63;;;6.78;;
6519;SDS011;3293;51.690;5.982;2023-05-14T19:02:02;14.20;;;7.38;;
6519;SDS011;3293;51.690;5.982;2023-05-14T19:07:02;10.73;;;7.53;;
6519;SDS011;3293;51.690;5.982;2023-05-14T19:12:02;9.30;;;7.75;;
6519;SDS011;3293;51.690;5.982;2023-05-14T19:17:03;12.70;;;8.25;;
6519;SDS011;3293;51.690;5.982;2023-05-14T19:22:04;19.55;;;8.50;;
6519;SDS011;3293;51.690;5.982;2023-05-14T19:27:04;10.93;;;8.30;;
6519;SDS011;3293;51.690;5.982;2023-05-14T19:32:05;11.82;;;9.00;;
6519;SDS011;3293;51.690;5.982;2023-05-14T19:37:05;12.20;;;8.63;;
6519;SDS011;3293;51.690;5.982;2023-05-14T19:42:05;13.07;;;8.38;;
6519;SDS011;3293;51.690;5.982;2023-05-14T19:47:05;11.98;;;9.35;;
6519;SDS011;3293;51.690;5.982;2023-05-14T19:52:05;10.60;;;8.77;;
6519;SDS011;3293;51.690;5.982;2023-05-14T19:57:05;16.90;;;11.45;;
6519;SDS011;3293;51.690;5.982;2023-05-14T20:02:06;13.63;;;10.85;;
6519;SDS011;3293;51.690;5.982;2023-05-14T20:07:06;14.52;;;10.45;;
6519;SDS011;3293;51.690;5.982;2023-05-14T20:12:06;14.82;;;10.85;;
6519;SDS011;3293;51.690;5.982;2023-05-14T20:17:07;20.45;;;12.95;;
6519;SDS011;3293;51.690;5.982;2023-05-14T20:22:07;13.07;;;11.88;;
6519;SDS011;3293;51.690;5.982;2023-05-14T20:27:07;17.77;;;11.77;;
6519;SDS011;3293;51.690;5.982;2023-05-14T20:32:07;18.38;;;12.85;;
6519;SDS011;3293;51.690;5.982;2023-05-14T20:37:07;15.90;;;11.20;;
6519;SDS011;3293;51.690;5.982;2023-05-14T20:42:07;16.23;;;12.05;;
6519;SDS011;3293;51.690;5.982;2023-05-14T20:47:06;14.20;;;11.80;;
6519;SDS011;3293;51.690;5.982;2023-05-14T20:52:06;15.93;;;10.80;;
6519;SDS011;3293;51.690;5.982;2023-05-14T20:57:07;13.60;;;11.00;;
6519;SDS011;3293;51.690;5.982;2023-05-14T21:02:10;14.13;;;10.07;;
6519;SDS011;3293;51.690;5.982;2023-05-14T21:07:10;16.77;;;11.10;;
6519;SDS011;3293;51.690;5.982;2023-05-14T21:12:11;19.08;;;11.60;;
6519;SDS011;3293;51.690;5.982;2023-05-14T21:17:10;15.40;;;11.57;;
6519;SDS011;3293;51.690;5.982;2023-05-14T21:22:11;14.73;;;11.30;;
6519;SDS011;3293;51.690;5.982;2023-05-14T21:27:11;16.97;;;11.07;;
6519;SDS011;3293;51.690;5.982;2023-05-14T21:32:11;20.13;;;11.87;;
6519;SDS011;3293;51.690;5.982;2023-05-14T21:37:11;18.10;;;11.30;;
6519;SDS011;3293;51.690;5.982;2023-05-14T21:42:11;12.50;;;10.27;;
6519;SDS011;3293;51.690;5.982;2023-05-14T21:47:11;16.13;;;11.03;;
6519;SDS011;3293;51.690;5.982;2023-05-14T21:52:10;18.43;;;11.27;;
6519;SDS011;3293;51.690;5.982;2023-05-14T21:57:11;13.30;;;10.30;;
6519;SDS011;3293;51.690;5.982;2023-05-14T22:02:10;12.93;;;9.87;;
6519;SDS011;3293;51.690;5.982;2023-05-14T22:07:10;17.73;;;10.93;;
6519;SDS011;3293;51.690;5.982;2023-05-14T22:12:10;16.33;;;10.87;;
6519;SDS011;3293;51.690;5.982;2023-05-14T22:17:10;19.87;;;12.80;;
6519;SDS011;3293;51.690;5.982;2023-05-14T22:22:11;14.43;;;11.87;;
6519;SDS011;3293;51.690;5.982;2023-05-14T22:27:10;17.17;;;13.17;;
6519;SDS011;3293;51.690;5.982;2023-05-14T22:32:10;15.70;;;13.23;;
6519;SDS011;3293;51.690;5.982;2023-05-14T22:37:10;18.67;;;13.27;;
6519;SDS011;3293;51.690;5.982;2023-05-14T22:42:10;16.37;;;13.70;;
6519;SDS011;3293;51.690;5.982;2023-05-14T22:47:10;18.00;;;13.93;;
6519;SDS011;3293;51.690;5.982;2023-05-14T22:52:10;17.33;;;13.47;;
6519;SDS011;3293;51.690;5.982;2023-05-14T22:57:10;17.77;;;15.17;;
6519;SDS011;3293;51.690;5.982;2023-05-14T23:02:10;19.43;;;16.07;;
6519;SDS011;3293;51.690;5.982;2023-05-14T23:07:10;19.20;;;15.07;;
6519;SDS011;3293;51.690;5.982;2023-05-14T23:12:11;17.43;;;14.30;;
6519;SDS011;3293;51.690;5.982;2023-05-14T23:17:11;20.87;;;16.13;;
6519;SDS011;3293;51.690;5.982;2023-05-14T23:22:11;26.77;;;17.17;;
6519;SDS011;3293;51.690;5.982;2023-05-14T23:27:10;21.23;;;16.83;;
6519;SDS011;3293;51.690;5.982;2023-05-14T23:32:11;22.00;;;16.13;;
6519;SDS011;3293;51.690;5.982;2023-05-14T23:37:11;25.93;;;17.77;;
6519;SDS011;3293;51.690;5.982;2023-05-14T23:42:11;22.67;;;17.00;;
6519;SDS011;3293;51.690;5.982;2023-05-14T23:47:11;30.83;;;18.90;;
6519;SDS011;3293;51.690;5.982;2023-05-14T23:52:11;25.30;;;18.23;;
6519;SDS011;3293;51.690;5.982;2023-05-14T23:57:11;22.13;;;17.77;;
